createdAt,value
2022-11-29T00:02:15.166Z,2.73
2022-11-29T00:04:42.315Z,2.55
2022-11-29T00:07:09.040Z,2.73
2022-11-29T00:09:35.535Z,2.79
2022-11-29T00:12:14.152Z,2.75
2022-11-29T00:14:41.597Z,2.82
2022-11-29T00:17:08.547Z,2.84
2022-11-29T00:19:36.925Z,2.83
2022-11-29T00:22:04.530Z,2.79
2022-11-29T00:24:32.443Z,2.82
2022-11-29T00:26:59.544Z,2.84
2022-11-29T00:29:27.924Z,2.87
2022-11-29T00:31:54.523Z,2.81
2022-11-29T00:34:21.176Z,2.80
2022-11-29T00:36:47.700Z,2.75
2022-11-29T00:39:16.238Z,2.65
2022-11-29T00:41:42.769Z,2.73
2022-11-29T00:44:11.932Z,2.77
2022-11-29T00:46:41.965Z,2.76
2022-11-29T00:49:08.486Z,2.68
2022-11-29T00:51:35.017Z,2.73
2022-11-29T00:54:01.538Z,2.72
2022-11-29T00:56:28.223Z,2.72
2022-11-29T00:58:54.888Z,2.64
2022-11-29T01:01:21.557Z,2.68
2022-11-29T01:03:48.183Z,2.70
2022-11-29T01:06:17.280Z,2.72
2022-11-29T01:08:45.691Z,2.69
2022-11-29T01:11:27.159Z,2.81
2022-11-29T01:13:57.373Z,2.83
2022-11-29T01:16:24.490Z,2.63
2022-11-29T01:18:51.182Z,2.79
2022-11-29T01:21:21.044Z,2.75
2022-11-29T01:23:48.927Z,2.84
2022-11-29T01:26:21.130Z,2.90
2022-11-29T01:28:49.972Z,2.79
2022-11-29T01:31:36.725Z,2.62
2022-11-29T01:34:05.269Z,2.76
2022-11-29T01:36:32.206Z,2.68
2022-11-29T01:39:04.027Z,2.63
2022-11-29T01:41:32.755Z,2.74
2022-11-29T01:44:05.120Z,2.80
2022-11-29T01:46:34.972Z,2.79
2022-11-29T01:49:17.265Z,2.85
2022-11-29T01:52:13.222Z,2.68
2022-11-29T01:54:45.284Z,2.66
2022-11-29T01:57:13.861Z,2.62
2022-11-29T01:59:47.985Z,2.74
2022-11-29T02:02:18.825Z,2.67
2022-11-29T02:04:47.055Z,2.62
2022-11-29T02:07:14.339Z,2.64
2022-11-29T02:09:41.059Z,2.74
2022-11-29T02:12:26.089Z,2.75
2022-11-29T02:15:10.630Z,2.86
2022-11-29T02:18:02.533Z,2.86
2022-11-29T02:21:06.460Z,2.84
2022-11-29T02:23:39.453Z,2.85
2022-11-29T02:26:21.412Z,2.86
2022-11-29T02:29:17.013Z,2.73
2022-11-29T02:32:15.605Z,2.84
2022-11-29T02:35:19.646Z,2.73
2022-11-29T02:37:52.043Z,2.80
2022-11-29T02:40:37.242Z,2.82
2022-11-29T02:43:25.690Z,2.84
2022-11-29T02:46:18.627Z,2.82
2022-11-29T02:49:00.386Z,2.97
2022-11-29T02:51:51.669Z,3.02
2022-11-29T02:54:29.832Z,2.98
2022-11-29T02:57:18.193Z,2.83
2022-11-29T02:59:53.726Z,2.96
2022-11-29T03:02:51.647Z,2.84
2022-11-29T03:05:30.819Z,2.82
2022-11-29T03:08:30.731Z,3.03
2022-11-29T03:11:12.204Z,2.86
2022-11-29T03:13:43.344Z,2.97
2022-11-29T03:16:18.691Z,3.01
2022-11-29T03:19:03.816Z,2.97
2022-11-29T03:21:55.276Z,3.05
2022-11-29T03:24:31.556Z,3.03
2022-11-29T03:27:11.604Z,3.08
2022-11-29T03:29:44.729Z,3.10
2022-11-29T03:32:22.669Z,3.17
2022-11-29T03:35:07.731Z,3.14
2022-11-29T03:37:57.781Z,3.06
2022-11-29T03:40:56.592Z,3.11
2022-11-29T03:43:47.070Z,3.04
2022-11-29T03:46:40.044Z,3.01
2022-11-29T03:49:27.829Z,3.04
2022-11-29T03:52:12.726Z,2.99
2022-11-29T03:55:17.070Z,2.99
2022-11-29T03:57:55.606Z,3.03
2022-11-29T04:00:23.063Z,3.09
2022-11-29T04:02:58.366Z,3.09
2022-11-29T04:05:53.212Z,3.10
2022-11-29T04:08:34.967Z,3.11
2022-11-29T04:11:20.490Z,3.16
2022-11-29T04:14:08.759Z,3.20
2022-11-29T04:16:50.752Z,3.20
2022-11-29T04:19:26.210Z,3.11
2022-11-29T04:22:34.923Z,3.16
2022-11-29T04:25:39.440Z,3.08
2022-11-29T04:28:21.319Z,3.03
2022-11-29T04:31:22.406Z,3.00
2022-11-29T04:34:10.486Z,3.18
2022-11-29T04:36:48.941Z,3.13
2022-11-29T04:39:41.709Z,3.19
2022-11-29T04:42:37.170Z,3.20
2022-11-29T04:45:40.415Z,3.20
2022-11-29T04:48:51.517Z,3.10
2022-11-29T04:51:42.833Z,3.17
2022-11-29T04:54:32.516Z,3.14
2022-11-29T04:57:11.781Z,3.17
2022-11-29T04:59:51.691Z,3.19
2022-11-29T05:02:43.291Z,3.11
2022-11-29T05:05:40.457Z,3.12
2022-11-29T05:08:33.167Z,3.27
2022-11-29T05:11:10.614Z,3.32
2022-11-29T05:13:59.052Z,3.20
2022-11-29T05:16:48.780Z,3.21
2022-11-29T05:19:18.297Z,3.28
2022-11-29T05:22:00.273Z,3.26
2022-11-29T05:24:42.762Z,3.25
2022-11-29T05:27:26.226Z,3.30
2022-11-29T05:30:14.282Z,3.35
2022-11-29T05:33:02.623Z,3.25
2022-11-29T05:35:52.307Z,3.26
2022-11-29T05:38:48.353Z,3.35
2022-11-29T05:41:52.370Z,3.41
2022-11-29T05:44:34.095Z,3.30
2022-11-29T05:47:12.603Z,3.40
2022-11-29T05:50:00.917Z,3.41
2022-11-29T05:53:02.092Z,3.25
2022-11-29T05:56:01.108Z,3.39
2022-11-29T05:58:49.370Z,3.41
2022-11-29T06:01:29.882Z,3.32
2022-11-29T06:04:25.855Z,3.32
2022-11-29T06:07:10.418Z,3.31
2022-11-29T06:09:51.225Z,3.36
2022-11-29T06:12:22.906Z,3.40
2022-11-29T06:15:06.530Z,3.40
2022-11-29T06:18:09.037Z,3.37
2022-11-29T06:21:00.663Z,3.34
2022-11-29T06:24:12.370Z,3.40
2022-11-29T06:27:04.702Z,3.36
2022-11-29T06:29:58.038Z,3.34
2022-11-29T06:32:54.365Z,3.24
2022-11-29T06:35:47.548Z,3.36
2022-11-29T06:38:28.953Z,3.32
2022-11-29T06:41:02.092Z,3.34
2022-11-29T06:43:29.351Z,3.30
2022-11-29T06:45:58.891Z,3.45
2022-11-29T06:48:34.469Z,3.48
2022-11-29T06:51:12.808Z,3.45
2022-11-29T06:54:03.570Z,3.23
2022-11-29T06:56:35.772Z,3.23
2022-11-29T06:59:26.669Z,3.32
2022-11-29T07:02:17.510Z,3.27
2022-11-29T07:05:19.964Z,3.37
2022-11-29T07:07:48.367Z,3.36
2022-11-29T07:10:17.391Z,3.39
2022-11-29T07:12:48.593Z,3.33
2022-11-29T07:15:17.742Z,3.28
2022-11-29T07:17:59.412Z,3.32
2022-11-29T07:21:03.030Z,3.44
2022-11-29T07:23:38.073Z,3.32
2022-11-29T07:26:26.910Z,3.41
2022-11-29T07:29:08.110Z,3.35
2022-11-29T07:31:51.794Z,3.33
2022-11-29T07:34:40.170Z,3.41
2022-11-29T07:37:34.293Z,3.37
2022-11-29T07:40:12.041Z,3.31
2022-11-29T07:42:55.017Z,3.40
2022-11-29T07:45:29.032Z,3.39
2022-11-29T07:47:55.525Z,3.50
2022-11-29T07:50:21.976Z,3.44
2022-11-29T07:52:49.117Z,3.47
2022-11-29T07:55:19.381Z,3.53
2022-11-29T07:57:46.653Z,3.51
2022-11-29T08:00:13.951Z,3.50
2022-11-29T08:02:41.268Z,3.32
2022-11-29T08:05:08.894Z,3.61
2022-11-29T08:07:40.281Z,3.59
2022-11-29T08:10:10.751Z,3.47
2022-11-29T08:12:43.737Z,3.51
2022-11-29T08:15:10.386Z,3.60
2022-11-29T08:17:38.521Z,3.67
2022-11-29T08:20:06.531Z,3.65
2022-11-29T08:22:33.202Z,3.84
2022-11-29T08:25:00.040Z,3.71
2022-11-29T08:27:26.811Z,3.69
2022-11-29T08:29:53.327Z,3.60
2022-11-29T08:32:20.027Z,3.64
2022-11-29T08:34:46.942Z,3.70
2022-11-29T08:37:13.684Z,3.76
2022-11-29T08:39:40.231Z,3.79
2022-11-29T08:42:06.734Z,3.81
2022-11-29T08:44:33.301Z,3.98
2022-11-29T08:47:18.394Z,4.00
2022-11-29T08:50:03.233Z,3.79
2022-11-29T08:52:50.620Z,3.86
2022-11-29T08:55:18.853Z,3.95
2022-11-29T08:57:46.347Z,3.94
2022-11-29T09:00:13.577Z,3.94
2022-11-29T09:02:40.243Z,3.81
2022-11-29T09:05:08.148Z,3.63
2022-11-29T09:07:34.861Z,3.87
2022-11-29T09:10:07.896Z,3.75
2022-11-29T09:12:36.293Z,3.85
2022-11-29T09:15:08.280Z,3.89
2022-11-29T09:17:34.867Z,3.79
2022-11-29T09:20:01.635Z,3.88
2022-11-29T09:22:28.202Z,3.82
2022-11-29T09:24:54.727Z,3.86
2022-11-29T09:27:21.223Z,3.87
2022-11-29T09:29:47.622Z,4.04
2022-11-29T09:32:14.172Z,4.13
2022-11-29T09:34:42.260Z,3.85
2022-11-29T09:37:09.016Z,3.99
2022-11-29T09:39:35.521Z,4.06
2022-11-29T09:42:36.026Z,3.94
2022-11-29T09:45:19.323Z,4.06
2022-11-29T09:48:23.334Z,4.04
2022-11-29T09:51:06.849Z,3.90
2022-11-29T09:53:59.455Z,4.04
2022-11-29T09:56:39.107Z,4.10
2022-11-29T09:59:28.810Z,4.10
2022-11-29T10:02:04.051Z,3.98
2022-11-29T10:04:36.434Z,4.05
2022-11-29T10:07:11.114Z,3.70
2022-11-29T10:09:44.890Z,3.85
2022-11-29T10:12:55.085Z,4.27
2022-11-29T10:15:31.456Z,4.24
2022-11-29T10:18:24.424Z,4.20
2022-11-29T10:20:58.457Z,4.28
2022-11-29T10:23:44.585Z,4.24
2022-11-29T10:26:12.779Z,4.37
2022-11-29T10:28:48.604Z,4.31
2022-11-29T10:31:27.253Z,4.04
2022-11-29T10:33:55.911Z,4.26
2022-11-29T10:36:33.132Z,4.46
2022-11-29T10:39:09.954Z,4.39
2022-11-29T10:41:39.660Z,4.36
2022-11-29T10:44:06.397Z,4.31
2022-11-29T10:46:37.072Z,4.38
2022-11-29T10:49:06.996Z,4.31
2022-11-29T10:51:34.962Z,4.31
2022-11-29T10:54:18.398Z,4.46
2022-11-29T10:56:45.575Z,4.58
2022-11-29T10:59:22.888Z,4.54
2022-11-29T11:01:50.702Z,4.56
2022-11-29T11:04:44.532Z,4.66
2022-11-29T11:07:24.885Z,4.70
2022-11-29T11:09:55.800Z,4.68
2022-11-29T11:12:26.090Z,4.74
2022-11-29T11:15:23.143Z,4.67
2022-11-29T11:33:18.017Z,4.45
2022-11-29T11:35:44.572Z,4.42
2022-11-29T11:38:19.957Z,4.52
2022-11-29T11:40:46.674Z,4.60
2022-11-29T11:43:20.458Z,4.63
2022-11-29T11:45:53.562Z,4.77
2022-11-29T11:48:21.036Z,4.83
2022-11-29T11:50:57.456Z,4.72
2022-11-29T11:53:28.807Z,4.87
2022-11-29T11:55:59.363Z,4.90
2022-11-29T11:58:29.203Z,4.90
2022-11-29T12:01:18.150Z,4.90
2022-11-29T12:04:11.572Z,4.98
2022-11-29T12:06:49.308Z,4.75
2022-11-29T12:09:24.950Z,4.85
2022-11-29T12:12:03.654Z,4.81
2022-11-29T12:14:39.162Z,4.94
2022-11-29T12:17:22.624Z,4.98
2022-11-29T12:20:04.589Z,4.91
2022-11-29T12:22:47.900Z,4.84
2022-11-29T12:25:21.792Z,5.01
2022-11-29T12:27:51.797Z,4.66
2022-11-29T12:30:19.391Z,4.79
2022-11-29T12:33:01.207Z,5.02
2022-11-29T12:35:34.873Z,4.98
2022-11-29T12:38:16.817Z,5.03
2022-11-29T12:41:04.193Z,5.05
2022-11-29T12:43:38.466Z,5.16
2022-11-29T12:46:11.101Z,5.21
2022-11-29T12:49:03.630Z,5.08
2022-11-29T12:51:45.004Z,5.06
2022-11-29T12:54:26.120Z,5.06
2022-11-29T12:57:11.628Z,5.06
2022-11-29T13:00:00.700Z,5.19
2022-11-29T13:02:46.282Z,5.06
2022-11-29T13:05:27.805Z,5.12
2022-11-29T13:08:22.413Z,4.90
2022-11-29T13:11:01.704Z,4.80
2022-11-29T13:13:42.767Z,4.90
2022-11-29T13:16:36.119Z,5.16
2022-11-29T13:19:18.468Z,4.93
2022-11-29T13:22:12.721Z,4.97
2022-11-29T13:24:46.172Z,4.97
2022-11-29T13:27:37.067Z,5.00
2022-11-29T13:30:05.273Z,4.74
2022-11-29T13:32:39.680Z,4.92
2022-11-29T13:35:18.508Z,4.78
2022-11-29T13:37:55.407Z,4.90
2022-11-29T13:40:51.418Z,4.80
2022-11-29T13:43:37.820Z,4.83
2022-11-29T13:46:22.854Z,4.67
2022-11-29T13:48:52.499Z,4.79
2022-11-29T13:51:25.612Z,4.56
2022-11-29T13:53:54.066Z,4.91
2022-11-29T13:56:33.406Z,4.82
2022-11-29T13:59:04.454Z,4.86
2022-11-29T14:01:43.828Z,4.85
2022-11-29T14:04:27.996Z,5.03
2022-11-29T14:07:10.868Z,5.01
2022-11-29T14:09:45.480Z,4.85
2022-11-29T14:12:37.004Z,4.91
2022-11-29T14:15:22.730Z,4.85
2022-11-29T14:17:49.242Z,4.84
2022-11-29T14:20:30.840Z,4.90
2022-11-29T14:23:06.390Z,4.87
2022-11-29T14:25:57.524Z,4.97
2022-11-29T14:28:23.963Z,4.89
2022-11-29T14:30:57.330Z,4.96
2022-11-29T14:33:33.897Z,4.86
2022-11-29T14:36:17.461Z,4.87
2022-11-29T14:38:46.743Z,4.82
2022-11-29T14:41:41.934Z,4.77
2022-11-29T14:44:21.852Z,4.69
2022-11-29T14:46:49.048Z,4.68
2022-11-29T14:49:24.686Z,4.64
2022-11-29T14:52:12.970Z,4.56
2022-11-29T14:54:58.312Z,4.58
2022-11-29T14:57:46.754Z,4.69
2022-11-29T15:00:16.014Z,4.57
2022-11-29T15:02:48.419Z,4.52
2022-11-29T15:05:33.754Z,4.62
2022-11-29T15:08:40.766Z,4.61
2022-11-29T15:11:10.019Z,4.63
2022-11-29T15:13:44.296Z,4.54
2022-11-29T15:16:23.910Z,4.65
2022-11-29T15:19:35.047Z,4.62
2022-11-29T15:22:15.106Z,4.51
2022-11-29T15:24:59.902Z,4.48
2022-11-29T15:27:26.481Z,4.47
2022-11-29T15:29:53.004Z,4.49
2022-11-29T15:32:19.420Z,4.59
2022-11-29T15:34:51.535Z,4.47
2022-11-29T15:37:39.498Z,4.46
2022-11-29T15:40:14.906Z,4.42
2022-11-29T15:43:00.019Z,4.31
2022-11-29T15:45:28.684Z,4.43
2022-11-29T15:48:09.430Z,4.25
2022-11-29T15:50:36.201Z,4.36
2022-11-29T15:53:07.011Z,4.46
2022-11-29T15:55:33.789Z,4.45
2022-11-29T15:58:08.323Z,4.41
2022-11-29T16:00:36.295Z,4.45
2022-11-29T16:03:05.046Z,4.39
2022-11-29T16:05:37.486Z,4.41
2022-11-29T16:08:08.481Z,4.36
2022-11-29T16:10:43.506Z,4.31
2022-11-29T16:13:57.804Z,4.38
2022-11-29T16:16:25.767Z,4.46
2022-11-29T16:18:52.347Z,4.29
2022-11-29T16:21:25.381Z,4.30
2022-11-29T16:23:53.075Z,4.28
2022-11-29T16:26:34.384Z,4.19
2022-11-29T16:29:02.592Z,4.31
2022-11-29T16:31:37.755Z,4.23
2022-11-29T16:34:23.171Z,4.38
2022-11-29T16:37:06.290Z,4.35
2022-11-29T16:39:36.638Z,4.32
2022-11-29T16:42:25.778Z,4.21
2022-11-29T16:44:56.674Z,4.24
2022-11-29T16:47:26.405Z,4.33
2022-11-29T16:50:02.713Z,4.30
2022-11-29T16:52:32.460Z,4.33
2022-11-29T16:54:59.452Z,4.29
2022-11-29T16:57:28.614Z,4.24
2022-11-29T16:59:55.142Z,4.29
2022-11-29T17:02:21.774Z,4.36
2022-11-29T17:04:48.646Z,4.29
2022-11-29T17:07:22.467Z,4.28
2022-11-29T17:09:49.098Z,4.28
2022-11-29T17:12:15.620Z,4.18
2022-11-29T17:14:42.576Z,4.26
2022-11-29T17:17:15.576Z,4.04
2022-11-29T17:19:42.289Z,4.18
2022-11-29T17:22:09.094Z,4.19
2022-11-29T17:24:37.088Z,4.22
2022-11-29T17:27:03.890Z,4.15
2022-11-29T17:29:30.508Z,4.11
2022-11-29T17:31:57.306Z,4.23
2022-11-29T17:34:23.897Z,4.20
2022-11-29T17:36:51.778Z,4.03
2022-11-29T17:39:20.187Z,4.13
2022-11-29T17:41:47.025Z,4.13
2022-11-29T17:44:13.492Z,4.01
2022-11-29T17:46:40.023Z,4.06
2022-11-29T17:49:08.724Z,4.04
2022-11-29T17:51:51.548Z,4.03
2022-11-29T17:54:19.089Z,4.06
2022-11-29T17:56:45.648Z,3.86
2022-11-29T17:59:12.158Z,3.82
2022-11-29T18:01:38.781Z,3.86
2022-11-29T18:04:06.669Z,3.92
2022-11-29T18:06:38.565Z,3.91
2022-11-29T18:09:07.759Z,3.97
2022-11-29T18:11:48.257Z,3.81
2022-11-29T18:14:18.872Z,3.94
2022-11-29T18:16:45.617Z,3.95
2022-11-29T18:19:15.189Z,3.99
2022-11-29T18:21:41.767Z,3.84
2022-11-29T18:24:08.377Z,3.95
2022-11-29T18:26:36.397Z,3.88
2022-11-29T18:29:04.119Z,3.85
2022-11-29T18:31:33.635Z,3.85
2022-11-29T18:34:02.075Z,3.87
2022-11-29T18:36:33.555Z,3.88
2022-11-29T18:39:03.413Z,3.79
2022-11-29T18:41:31.431Z,3.58
2022-11-29T18:44:02.941Z,3.77
2022-11-29T18:46:33.244Z,3.71
2022-11-29T18:49:03.460Z,3.64
2022-11-29T18:51:31.277Z,3.75
2022-11-29T18:53:58.834Z,3.47
2022-11-29T18:56:27.439Z,3.55
2022-11-29T18:58:58.252Z,3.56
2022-11-29T19:01:27.634Z,3.63
2022-11-29T19:03:55.782Z,3.51
2022-11-29T19:06:25.736Z,3.51
2022-11-29T19:08:52.951Z,3.58
2022-11-29T19:11:21.848Z,3.55
2022-11-29T19:13:56.792Z,3.57
2022-11-29T19:16:25.443Z,3.50
2022-11-29T19:18:53.749Z,3.51
2022-11-29T19:21:21.467Z,3.35
2022-11-29T19:23:57.211Z,3.45
2022-11-29T19:26:26.270Z,3.34
2022-11-29T19:28:53.320Z,3.52
2022-11-29T19:31:23.873Z,3.51
2022-11-29T19:33:52.359Z,3.35
2022-11-29T19:36:22.253Z,3.59
2022-11-29T19:38:53.463Z,3.54
2022-11-29T19:41:23.594Z,3.68
2022-11-29T19:43:50.937Z,3.67
2022-11-29T19:46:22.656Z,3.44
2022-11-29T19:48:51.428Z,3.74
2022-11-29T19:51:17.952Z,3.59
2022-11-29T19:53:46.204Z,3.71
2022-11-29T19:56:16.821Z,3.75
2022-11-29T19:58:44.210Z,3.72
2022-11-29T20:01:20.030Z,3.47
2022-11-29T20:03:46.540Z,3.51
2022-11-29T20:06:15.856Z,3.60
2022-11-29T20:08:42.996Z,3.40
2022-11-29T20:11:19.013Z,3.64
2022-11-29T20:13:47.438Z,3.69
2022-11-29T20:16:16.980Z,3.74
2022-11-29T20:18:50.713Z,3.63
2022-11-29T20:21:22.245Z,3.70
2022-11-29T20:23:49.340Z,3.55
2022-11-29T20:26:20.194Z,3.78
2022-11-29T20:28:47.326Z,3.77
2022-11-29T20:31:17.511Z,3.68
2022-11-29T20:33:45.668Z,3.65
2022-11-29T20:36:34.037Z,3.76
2022-11-29T20:39:18.787Z,3.81
2022-11-29T20:41:53.873Z,3.46
2022-11-29T20:44:41.534Z,3.63
2022-11-29T20:47:21.593Z,3.67
2022-11-29T20:49:48.981Z,3.62
2022-11-29T20:52:43.083Z,3.71
2022-11-29T20:55:09.543Z,3.62
2022-11-29T20:57:38.304Z,3.66
2022-11-29T21:00:11.336Z,3.73
2022-11-29T21:02:38.281Z,3.51
2022-11-29T21:05:05.311Z,3.73
2022-11-29T21:07:31.996Z,3.72
2022-11-29T21:10:01.399Z,3.54
2022-11-29T21:12:29.302Z,3.78
2022-11-29T21:14:56.041Z,3.45
2022-11-29T21:17:22.776Z,3.80
2022-11-29T21:19:49.559Z,3.50
2022-11-29T21:23:04.640Z,3.56
2022-11-29T21:25:31.056Z,3.53
2022-11-29T21:27:57.550Z,3.67
2022-11-29T21:30:25.002Z,3.51
2022-11-29T21:32:52.113Z,3.42
2022-11-29T21:35:18.639Z,3.60
2022-11-29T21:37:46.140Z,3.61
2022-11-29T21:40:14.007Z,3.42
2022-11-29T21:42:40.727Z,3.41
2022-11-29T21:45:13.403Z,3.45
2022-11-29T21:47:41.995Z,3.50
2022-11-29T21:50:08.835Z,3.65
2022-11-29T21:52:35.359Z,3.28
2022-11-29T21:55:01.908Z,3.60
2022-11-29T21:57:28.382Z,3.33
2022-11-29T21:59:54.803Z,3.63
2022-11-29T22:02:21.424Z,3.56
2022-11-29T22:04:48.316Z,3.44
2022-11-29T22:07:15.099Z,3.48
2022-11-29T22:09:41.571Z,3.12
2022-11-29T22:12:31.917Z,3.54
2022-11-29T22:14:54.449Z,3.41
2022-11-29T22:17:20.833Z,3.51
2022-11-29T22:19:47.299Z,3.42
2022-11-29T22:22:14.361Z,3.37
2022-11-29T22:24:40.778Z,3.57
2022-11-29T22:27:07.236Z,3.36
2022-11-29T22:29:33.601Z,3.62
2022-11-29T22:32:01.102Z,3.42
2022-11-29T22:34:28.272Z,3.51
2022-11-29T22:36:55.182Z,3.41
2022-11-29T22:39:22.567Z,3.36
2022-11-29T22:41:53.931Z,3.45
2022-11-29T22:44:21.748Z,3.49
2022-11-29T22:46:48.482Z,3.51
2022-11-29T22:49:15.006Z,3.53
2022-11-29T22:51:41.501Z,3.66
2022-11-29T22:54:09.624Z,3.72
2022-11-29T22:56:40.637Z,3.28
2022-11-29T22:59:07.787Z,3.56
2022-11-29T23:18:15.208Z,3.04
2022-11-29T23:20:41.785Z,3.26
2022-11-29T23:23:08.290Z,3.36
2022-11-29T23:25:34.891Z,3.36
2022-11-29T23:28:02.281Z,3.44
2022-11-29T23:30:28.819Z,3.48
2022-11-29T23:32:55.308Z,3.49
2022-11-29T23:35:22.398Z,3.66
2022-11-29T23:37:48.890Z,3.64
2022-11-29T23:40:15.431Z,3.58
2022-11-29T23:42:45.093Z,3.64
2022-11-29T23:45:13.726Z,3.74
2022-11-29T23:47:40.220Z,3.62
2022-11-29T23:50:07.050Z,3.66
2022-11-29T23:52:33.674Z,3.71
2022-11-29T23:55:00.190Z,3.76
2022-11-29T23:57:28.807Z,3.76
2022-11-29T23:59:55.436Z,3.78
